Time;durP1;ratioP1;P1;durP2;ratioP2;P2;SDS_P1;SDS_P2;PMS_P1;PMS_P2;Temp;Humidity;BMP_temperature;BMP_pressure;BME280_temperature;BME280_humidity;BME280_pressure;Samples;Min_cycle;Max_cycle;Signal;HPM_P1;HPM_P2
2023/10/13 00:01:24;;;;;;;6.15;4.05;;;20.50;70.40;;;;;;5020360;28;20041;-48
2023/10/13 00:03:54;;;;;;;4.55;3.60;;;20.50;70.30;;;;;;5023032;28;20682;-48
2023/10/13 00:06:19;;;;;;;4.35;3.45;;;20.50;70.30;;;;;;5026531;28;20036;-49
2023/10/13 00:08:46;;;;;;;5.38;4.38;;;20.50;70.30;;;;;;5021274;28;20037;-48
2023/10/13 00:11:15;;;;;;;4.85;3.83;;;20.50;70.30;;;;;;5022109;28;20025;-48
2023/10/13 00:13:43;;;;;;;3.92;3.60;;;20.50;70.30;;;;;;5027313;28;20162;-46
2023/10/13 00:16:17;;;;;;;4.15;3.47;;;20.50;70.30;;;;;;5021289;28;20041;-51
2023/10/13 00:18:44;;;;;;;5.80;3.38;;;20.50;70.30;;;;;;5029638;28;20344;-48
2023/10/13 00:21:13;;;;;;;3.65;3.00;;;20.50;70.30;;;;;;5025420;28;20033;-47
2023/10/13 00:23:52;;;;;;;5.35;4.05;;;20.50;70.30;;;;;;5028979;28;20026;-47
2023/10/13 00:26:28;;;;;;;4.15;3.42;;;20.50;70.30;;;;;;5029132;28;20059;-48
2023/10/13 00:29:08;;;;;;;3.67;3.22;;;20.50;70.30;;;;;;5027418;28;20025;-51
2023/10/13 00:31:40;;;;;;;5.85;3.85;;;20.50;70.30;;;;;;5024934;28;20034;-50
2023/10/13 00:34:19;;;;;;;5.47;3.35;;;20.50;70.20;;;;;;5027325;28;20056;-47
2023/10/13 00:39:28;;;;;;;4.07;3.15;;;20.50;70.20;;;;;;5029090;28;20679;-47
2023/10/13 00:42:06;;;;;;;5.53;3.65;;;20.50;70.20;;;;;;5028293;28;20045;-46
2023/10/13 00:44:41;;;;;;;3.95;3.10;;;20.50;70.30;;;;;;5025233;28;20034;-47
2023/10/13 00:47:11;;;;;;;;;;;20.50;70.30;;;;;;5028768;28;20155;-49
2023/10/13 00:49:39;;;;;;;3.85;3.00;;;20.50;70.30;;;;;;5025547;28;19917;-48
2023/10/13 00:52:10;;;;;;;3.35;3.00;;;20.50;70.30;;;;;;5027524;28;20108;-47
2023/10/13 00:54:37;;;;;;;3.17;2.88;;;20.50;70.30;;;;;;5030930;28;20033;-47
2023/10/13 00:57:26;;;;;;;3.88;3.47;;;20.50;70.30;;;;;;5027024;28;20103;-46
2023/10/13 00:59:53;;;;;;;3.78;3.38;;;20.50;70.20;;;;;;5023503;28;20506;-47
2023/10/13 01:05:11;;;;;;;3.60;3.03;;;20.50;70.20;;;;;;5029920;28;20689;-46
2023/10/13 01:07:37;;;;;;;3.80;2.85;;;20.50;70.10;;;;;;5032460;28;20028;-48
2023/10/13 01:10:06;;;;;;;3.90;3.45;;;20.50;70.20;;;;;;5029112;28;20033;-50
2023/10/13 01:12:32;;;;;;;3.65;3.33;;;20.50;70.20;;;;;;5028509;28;20025;-48
2023/10/13 01:14:59;;;;;;;3.88;2.92;;;20.50;70.20;;;;;;5029715;28;20056;-48
2023/10/13 01:17:31;;;;;;;3.58;3.00;;;20.50;70.20;;;;;;5031982;28;20107;-48
2023/10/13 01:19:58;;;;;;;2.95;2.67;;;20.50;70.20;;;;;;5028948;28;20049;-46
2023/10/13 01:22:24;;;;;;;4.97;3.45;;;20.50;70.80;;;;;;5030968;28;20405;-48
2023/10/13 01:24:51;;;;;;;3.72;2.85;;;20.50;70.20;;;;;;5028998;28;20120;-52
2023/10/13 01:27:20;;;;;;;4.13;3.33;;;20.50;70.20;;;;;;5029521;28;20522;-48
2023/10/13 01:30:04;;;;;;;3.72;3.00;;;20.50;70.20;;;;;;5027966;28;20022;-46
2023/10/13 01:32:29;;;;;;;4.78;3.30;;;20.50;70.20;;;;;;5030580;28;20025;-47
2023/10/13 01:34:55;;;;;;;3.50;3.20;;;20.50;70.30;;;;;;5034327;28;20037;-47
2023/10/13 01:37:21;;;;;;;4.32;3.25;;;20.50;70.20;;;;;;5024252;28;20470;-50
2023/10/13 01:39:49;;;;;;;4.75;3.20;;;20.50;70.20;;;;;;5028338;28;20033;-50
2023/10/13 01:42:19;;;;;;;5.40;3.00;;;20.50;70.20;;;;;;5028811;28;20037;-58
2023/10/13 01:44:45;;;;;;;3.85;3.53;;;20.50;70.20;;;;;;5031436;28;20025;-49
2023/10/13 01:47:12;;;;;;;4.72;3.45;;;20.50;70.10;;;;;;5028140;28;20881;-47
2023/10/13 01:49:47;;;;;;;3.65;2.90;;;20.50;70.20;;;;;;5027454;28;20536;-47
2023/10/13 01:52:16;;;;;;;5.90;3.45;;;20.50;70.20;;;;;;5032537;28;20033;-48
2023/10/13 01:54:44;;;;;;;3.45;3.08;;;20.50;70.20;;;;;;5030134;28;20064;-46
2023/10/13 01:57:14;;;;;;;4.28;3.45;;;20.50;70.80;;;;;;5029951;28;20031;-48
2023/10/13 01:59:44;;;;;;;4.95;3.17;;;20.50;70.10;;;;;;5028752;28;20034;-48
2023/10/13 02:02:14;;;;;;;4.28;3.00;;;20.50;70.20;;;;;;5027010;28;20376;-49
2023/10/13 02:04:55;;;;;;;3.38;3.08;;;20.50;70.10;;;;;;5027565;28;20029;-47
2023/10/13 02:07:26;;;;;;;3.58;2.67;;;20.50;70.30;;;;;;5026553;28;20037;-47
2023/10/13 02:09:54;;;;;;;2.88;2.58;;;20.50;70.20;;;;;;5028372;28;20026;-47
2023/10/13 02:12:26;;;;;;;3.25;2.70;;;20.50;70.10;;;;;;5028117;28;20059;-49
2023/10/13 02:14:51;;;;;;;3.22;2.92;;;20.50;70.20;;;;;;5027914;28;20081;-46
2023/10/13 02:17:21;;;;;;;3.50;2.85;;;20.50;70.20;;;;;;5026606;28;20101;-49
2023/10/13 02:19:47;;;;;;;3.42;3.00;;;20.50;70.10;;;;;;5026813;28;20032;-48
2023/10/13 02:22:26;;;;;;;3.35;3.00;;;20.50;70.10;;;;;;5026904;28;20076;-45
2023/10/13 02:24:52;;;;;;;3.10;2.80;;;20.50;70.20;;;;;;5026523;28;20074;-47
2023/10/13 02:27:22;;;;;;;3.42;3.10;;;20.50;70.10;;;;;;5024653;28;20608;-47
2023/10/13 02:29:49;;;;;;;3.05;2.75;;;20.40;70.10;;;;;;5026831;28;20045;-46
2023/10/13 02:32:21;;;;;;;3.95;3.58;;;20.40;70.10;;;;;;5029524;28;20042;-53
2023/10/13 02:34:46;;;;;;;3.78;2.88;;;20.50;70.10;;;;;;5025867;28;20056;-47
2023/10/13 02:37:13;;;;;;;3.40;2.95;;;20.50;70.20;;;;;;5027015;28;20046;-45
2023/10/13 02:39:41;;;;;;;3.58;3.00;;;20.40;70.10;;;;;;5027417;28;20743;-47
2023/10/13 02:42:16;;;;;;;4.20;3.55;;;20.50;70.80;;;;;;5028185;28;20106;-46
2023/10/13 02:44:45;;;;;;;3.67;3.05;;;20.50;70.10;;;;;;5029394;28;20462;-46
2023/10/13 02:47:14;;;;;;;4.07;2.80;;;20.50;70.20;;;;;;5031904;28;20029;-45
2023/10/13 02:49:43;;;;;;;4.57;3.25;;;20.50;70.20;;;;;;5025359;28;20105;-46
2023/10/13 02:52:09;;;;;;;3.03;2.72;;;20.50;70.10;;;;;;5030272;28;20836;-46
2023/10/13 02:54:50;;;;;;;3.38;2.90;;;20.40;70.10;;;;;;5026319;28;20064;-46
2023/10/13 02:57:17;;;;;;;4.60;2.88;;;20.50;70.20;;;;;;5024919;28;20033;-46
2023/10/13 02:59:46;;;;;;;4.28;2.85;;;20.40;70.10;;;;;;5028456;28;20636;-49
2023/10/13 03:02:25;;;;;;;4.40;3.28;;;20.40;70.10;;;;;;5027995;28;20116;-49
2023/10/13 03:05:08;;;;;;;4.22;3.03;;;20.50;70.10;;;;;;5027036;28;20049;-50
2023/10/13 03:07:36;;;;;;;3.30;3.00;;;20.40;70.10;;;;;;5028802;28;20030;-47
2023/10/13 03:10:09;;;;;;;3.22;2.92;;;20.50;70.20;;;;;;5025311;28;20029;-47
2023/10/13 03:12:36;;;;;;;3.88;2.97;;;20.40;70.10;;;;;;5031485;28;20102;-48
2023/10/13 03:15:20;;;;;;;4.68;3.50;;;20.50;70.20;;;;;;5024529;28;20032;-48
2023/10/13 03:17:46;;;;;;;3.28;2.97;;;20.40;70.10;;;;;;5024086;28;20231;-49
2023/10/13 03:20:15;;;;;;;3.20;2.67;;;20.40;70.10;;;;;;5028305;28;20056;-46
2023/10/13 03:22:44;;;;;;;3.42;2.97;;;20.50;70.20;;;;;;5023699;28;20044;-46
2023/10/13 03:25:17;;;;;;;3.60;3.17;;;20.40;70.10;;;;;;5025860;28;20405;-49
2023/10/13 03:28:01;;;;;;;3.50;2.90;;;20.40;70.10;;;;;;5028410;28;20045;-46
2023/10/13 03:30:35;;;;;;;4.00;3.05;;;20.50;70.10;;;;;;5025265;28;20082;-47
2023/10/13 03:33:09;;;;;;;4.57;3.30;;;20.40;70.10;;;;;;5026247;28;20573;-46
2023/10/13 03:35:41;;;;;;;3.53;2.85;;;20.40;70.10;;;;;;5027932;28;21495;-47
2023/10/13 03:38:17;;;;;;;3.40;2.70;;;20.40;70.10;;;;;;5029841;28;20040;-46
2023/10/13 03:40:56;;;;;;;3.80;3.08;;;20.40;70.10;;;;;;5031196;28;20041;-46
2023/10/13 03:43:22;;;;;;;4.47;2.92;;;20.40;70.00;;;;;;5026754;28;22197;-47
2023/10/13 03:45:52;;;;;;;3.75;3.05;;;20.50;70.10;;;;;;5025370;28;20768;-49
2023/10/13 03:48:28;;;;;;;3.65;3.13;;;20.40;70.00;;;;;;5027493;28;20030;-48
2023/10/13 03:51:07;;;;;;;3.63;3.03;;;20.40;70.10;;;;;;5023500;28;20037;-48
2023/10/13 03:53:33;;;;;;;3.88;3.13;;;20.40;70.10;;;;;;5029189;28;20028;-46
2023/10/13 03:56:26;;;;;;;3.33;3.03;;;20.40;70.00;;;;;;5031341;28;20040;-46
2023/10/13 03:58:54;;;;;;;3.33;2.80;;;20.40;70.00;;;;;;5030484;28;20033;-47
2023/10/13 04:01:31;;;;;;;3.47;2.83;;;20.40;70.00;;;;;;5031440;28;20489;-48
2023/10/13 04:04:04;;;;;;;5.90;3.03;;;20.40;70.10;;;;;;5033402;28;20061;-48
2023/10/13 04:17:25;;;;;;;3.25;2.83;;;20.40;70.00;;;;;;5030352;28;20148;-49
2023/10/13 04:36:45;;;;;;;;;;;20.40;70.10;;;;;;5031673;28;20120;-47
2023/10/13 04:41:36;;;;;;;3.83;3.00;;;20.40;70.10;;;;;;5027017;28;20041;-46
2023/10/13 04:44:23;;;;;;;4.78;3.33;;;20.40;70.00;;;;;;5021882;28;20394;-47
2023/10/13 04:54:53;;;;;;;3.28;2.95;;;20.50;70.10;;;;;;5024609;28;20037;-47
2023/10/13 05:46:35;;;;;;;4.10;3.13;;;20.50;70.00;;;;;;5026219;28;20033;-48
2023/10/13 05:51:57;;;;;;;7.95;3.33;;;20.50;70.20;;;;;;5024024;28;20451;-46
2023/10/13 06:30:56;;;;;;;12.95;8.52;;;20.40;70.50;;;;;;5030568;28;20052;-50
2023/10/13 06:33:28;;;;;;;13.85;10.00;;;20.40;70.50;;;;;;5027778;28;20048;-47
2023/10/13 06:35:56;;;;;;;16.67;9.13;;;20.50;70.70;;;;;;5031697;28;20087;-47
2023/10/13 06:38:22;;;;;;;15.25;9.75;;;20.40;70.70;;;;;;5031540;28;20428;-49
2023/10/13 06:40:50;;;;;;;17.35;8.90;;;20.50;70.70;;;;;;5025263;28;20038;-47
2023/10/13 06:43:16;;;;;;;15.73;8.07;;;20.40;70.40;;;;;;5025278;28;20063;-50
2023/10/13 06:45:56;;;;;;;14.20;8.07;;;20.50;70.50;;;;;;5020094;28;20080;-46
2023/10/13 06:48:23;;;;;;;11.15;7.30;;;20.40;70.50;;;;;;5021803;28;20523;-47
2023/10/13 06:50:52;;;;;;;11.60;8.23;;;20.40;70.50;;;;;;5029499;28;20407;-46
2023/10/13 06:53:18;;;;;;;11.00;6.38;;;20.50;70.50;;;;;;5019845;28;20030;-49
2023/10/13 06:55:46;;;;;;;11.20;6.88;;;20.40;70.40;;;;;;5021332;28;20292;-47
2023/10/13 06:58:13;;;;;;;7.72;6.20;;;20.50;70.40;;;;;;5021324;28;20022;-49
2023/10/13 07:00:52;;;;;;;8.68;6.43;;;20.50;70.50;;;;;;5020247;28;20079;-47
2023/10/13 07:03:24;;;;;;;8.38;5.85;;;20.50;70.50;;;;;;5020917;28;20092;-47
2023/10/13 07:05:51;;;;;;;9.23;5.90;;;20.40;70.40;;;;;;5019532;28;20029;-48
2023/10/13 07:08:19;;;;;;;8.65;5.72;;;20.50;70.40;;;;;;5020983;28;20030;-53
2023/10/13 07:11:02;;;;;;;9.25;5.82;;;20.50;70.40;;;;;;5034523;28;20036;-49
2023/10/13 07:13:31;;;;;;;7.53;5.22;;;20.50;70.40;;;;;;5019880;28;20698;-47
2023/10/13 07:16:05;;;;;;;10.68;5.88;;;20.50;70.50;;;;;;5021877;28;20530;-48
2023/10/13 07:18:36;;;;;;;8.10;5.40;;;20.50;71.10;;;;;;5020203;28;20151;-48
2023/10/13 07:21:09;;;;;;;8.13;5.50;;;20.50;70.50;;;;;;5014316;28;20676;-47
2023/10/13 07:23:38;;;;;;;7.88;5.15;;;20.40;70.50;;;;;;5019260;28;20022;-49
2023/10/13 07:26:08;;;;;;;7.22;4.80;;;20.50;70.70;;;;;;5018906;28;20022;-48
2023/10/13 07:28:43;;;;;;;9.50;5.43;;;20.50;70.50;;;;;;5005276;28;20069;-47
2023/10/13 07:31:15;;;;;;;8.02;4.70;;;20.50;70.50;;;;;;4993379;28;20026;-50
2023/10/13 07:33:41;;;;;;;5.72;4.65;;;20.40;70.60;;;;;;4999711;28;20142;-49
2023/10/13 07:36:27;;;;;;;8.23;4.40;;;20.40;70.50;;;;;;5001259;28;20056;-46
2023/10/13 07:41:37;;;;;;;5.05;4.30;;;20.40;70.60;;;;;;5019429;28;20044;-48
2023/10/13 07:44:04;;;;;;;5.32;4.15;;;20.50;70.50;;;;;;5021268;28;20025;-46
2023/10/13 07:46:32;;;;;;;7.32;4.30;;;20.50;70.50;;;;;;5019708;28;20037;-50
2023/10/13 07:49:14;;;;;;;5.13;4.18;;;20.50;70.60;;;;;;5020971;28;20037;-48
2023/10/13 07:51:45;;;;;;;4.82;3.67;;;20.50;70.70;;;;;;5019931;28;20457;-48
2023/10/13 07:54:21;;;;;;;6.00;3.88;;;20.50;70.50;;;;;;5021756;28;20030;-50
2023/10/13 07:56:47;;;;;;;5.97;3.60;;;20.50;70.60;;;;;;5020013;28;20037;-48
2023/10/13 07:59:14;;;;;;;4.85;3.60;;;20.50;70.50;;;;;;5021385;28;20033;-46
2023/10/13 08:01:42;;;;;;;6.15;4.20;;;20.50;70.60;;;;;;5019445;28;20137;-48
2023/10/13 08:04:11;;;;;;;7.55;4.57;;;20.50;70.50;;;;;;5021475;28;20053;-49
2023/10/13 08:06:40;;;;;;;4.55;3.67;;;20.50;70.50;;;;;;5019546;28;20116;-47
2023/10/13 08:09:07;;;;;;;4.35;3.28;;;20.50;70.40;;;;;;5020469;28;20044;-47
2023/10/13 08:11:37;;;;;;;5.50;3.38;;;20.50;70.50;;;;;;5019716;28;20033;-49
2023/10/13 08:14:11;;;;;;;5.15;3.63;;;20.50;70.50;;;;;;5020759;28;20045;-47
2023/10/13 08:16:53;;;;;;;4.63;3.30;;;20.50;70.60;;;;;;5019840;28;20426;-48
2023/10/13 08:19:26;;;;;;;4.32;3.28;;;20.50;70.60;;;;;;5019930;28;20492;-49
2023/10/13 08:22:14;;;;;;;3.92;2.70;;;20.50;70.50;;;;;;5018078;28;20037;-47
2023/10/13 08:37:32;;;;;;;4.15;3.15;;;20.50;70.60;;;;;;5021092;28;20502;-47
2023/10/13 08:48:16;;;;;;;3.75;3.25;;;20.50;70.50;;;;;;5023339;28;20075;-53
2023/10/13 09:01:48;;;;;;;4.22;3.22;;;20.50;70.60;;;;;;4979672;28;20271;-47
2023/10/13 09:04:23;;;;;;;4.20;3.13;;;20.50;70.50;;;;;;5009208;28;20037;-46
2023/10/13 09:09:35;;;;;;;4.72;2.95;;;20.50;70.50;;;;;;5003876;28;20033;-50
2023/10/13 09:12:35;;;;;;;5.95;2.97;;;20.50;70.40;;;;;;5003560;28;20065;-47
2023/10/13 09:15:17;;;;;;;4.05;2.80;;;20.50;70.50;;;;;;5003747;28;20073;-51
2023/10/13 09:18:42;;;;;;;4.60;2.95;;;20.50;70.50;;;;;;5002235;28;20109;-47
2023/10/13 09:23:12;;;;;;;3.40;2.63;;;20.50;70.90;;;;;;5015793;28;20040;-47
2023/10/13 09:25:38;;;;;;;4.07;2.53;;;20.50;70.90;;;;;;5020953;28;20086;-47
2023/10/13 09:28:14;;;;;;;3.67;2.90;;;20.50;70.70;;;;;;5012592;28;20034;-50
2023/10/13 09:30:46;;;;;;;4.78;2.70;;;20.50;70.70;;;;;;5000651;28;20447;-47
2023/10/13 09:33:15;;;;;;;4.35;3.28;;;20.50;70.50;;;;;;5003231;28;20087;-47
2023/10/13 09:35:50;;;;;;;3.70;2.53;;;20.50;70.50;;;;;;5002191;28;20034;-47
2023/10/13 09:38:16;;;;;;;4.05;2.80;;;20.50;70.80;;;;;;5003326;28;20676;-52
2023/10/13 09:40:49;;;;;;;5.50;3.42;;;20.50;70.60;;;;;;5001274;28;20180;-47
2023/10/13 09:43:17;;;;;;;4.10;3.30;;;20.50;70.70;;;;;;5021932;28;20491;-46
2023/10/13 09:48:40;;;;;;;7.28;3.15;;;20.50;70.80;;;;;;5021938;28;20036;-47
2023/10/13 09:51:09;;;;;;;;;;;20.50;70.60;;;;;;5032389;23;20494;-48
2023/10/13 09:53:38;;;;;;;5.57;3.22;;;20.50;70.50;;;;;;5016159;28;19917;-47
2023/10/13 09:56:27;;;;;;;5.22;3.20;;;20.50;70.60;;;;;;5013756;28;20486;-52
2023/10/13 09:59:09;;;;;;;5.30;3.33;;;20.50;70.50;;;;;;5022276;28;20033;-49
2023/10/13 10:01:58;;;;;;;4.57;3.22;;;20.50;70.50;;;;;;5023158;28;20079;-48
2023/10/13 10:04:23;;;;;;;4.15;3.15;;;20.40;70.50;;;;;;5018646;28;20044;-46
2023/10/13 10:06:53;;;;;;;4.40;3.30;;;20.50;70.70;;;;;;5001779;28;20868;-49
2023/10/13 10:09:26;;;;;;;5.60;3.45;;;20.50;70.50;;;;;;5023370;28;20041;-50
2023/10/13 10:12:35;;;;;;;4.95;3.33;;;20.40;70.50;;;;;;5013007;28;20030;-47
2023/10/13 10:15:05;;;;;;;5.13;2.95;;;20.50;70.60;;;;;;5011788;28;20034;-48
2023/10/13 10:17:39;;;;;;;4.60;2.95;;;20.50;70.50;;;;;;5011634;28;20037;-47
2023/10/13 10:20:14;;;;;;;4.80;3.38;;;20.50;70.50;;;;;;5015044;28;20029;-47
2023/10/13 10:22:46;;;;;;;4.55;2.97;;;20.50;70.50;;;;;;5011534;28;20034;-46
2023/10/13 10:25:25;;;;;;;4.65;3.10;;;20.50;70.50;;;;;;5014991;28;20704;-47
2023/10/13 10:27:58;;;;;;;4.90;2.90;;;20.50;70.40;;;;;;5019945;28;20698;-52
2023/10/13 10:30:28;;;;;;;6.18;2.97;;;20.50;70.50;;;;;;5001412;28;20064;-47
2023/10/13 10:33:01;;;;;;;4.40;2.95;;;20.50;70.30;;;;;;5004590;28;20035;-48
2023/10/13 10:35:32;;;;;;;9.13;3.50;;;20.50;70.20;;;;;;5013960;28;20037;-50
2023/10/13 10:38:11;;;;;;;4.03;3.03;;;20.50;70.30;;;;;;5019792;28;20147;-49
2023/10/13 10:40:58;;;;;;;6.10;2.97;;;20.50;70.10;;;;;;5007321;28;20044;-49
2023/10/13 10:43:42;;;;;;;4.68;3.47;;;20.60;70.20;;;;;;5011266;28;20034;-50
2023/10/13 10:46:10;;;;;;;4.32;3.58;;;20.60;70.10;;;;;;5017437;28;20026;-48
2023/10/13 10:48:38;;;;;;;4.93;3.35;;;20.50;70.10;;;;;;5021190;28;20132;-47
2023/10/13 10:51:07;;;;;;;5.88;3.30;;;20.50;70.00;;;;;;5004430;28;20150;-46
2023/10/13 10:53:43;;;;;;;8.75;3.95;;;20.60;70.00;;;;;;5009224;28;20143;-49
2023/10/13 10:56:25;;;;;;;5.70;3.22;;;20.60;70.10;;;;;;5025702;28;20030;-49
2023/10/13 10:58:55;;;;;;;7.35;3.30;;;20.60;70.00;;;;;;5004859;28;20029;-47
2023/10/13 11:01:22;;;;;;;6.35;3.80;;;20.60;70.10;;;;;;5006665;28;20040;-47
2023/10/13 11:03:59;;;;;;;4.38;3.20;;;20.60;70.00;;;;;;5008443;28;20054;-48
2023/10/13 11:06:28;;;;;;;7.78;4.20;;;20.60;70.00;;;;;;5021777;28;20029;-48
2023/10/13 11:09:19;;;;;;;5.45;3.67;;;20.60;70.00;;;;;;5006203;28;20030;-46
2023/10/13 11:11:52;;;;;;;4.53;3.05;;;20.60;70.00;;;;;;5020449;28;20045;-47
2023/10/13 11:14:22;;;;;;;7.60;3.50;;;20.60;70.00;;;;;;5012010;28;20037;-49
2023/10/13 11:16:55;;;;;;;7.18;3.85;;;20.60;70.00;;;;;;5006757;28;20503;-48
2023/10/13 11:19:32;;;;;;;6.47;3.88;;;20.60;69.90;;;;;;5010688;28;20045;-46
2023/10/13 11:22:01;;;;;;;8.73;3.80;;;20.50;70.00;;;;;;5012589;28;20113;-51
2023/10/13 11:24:27;;;;;;;5.93;4.00;;;20.60;70.00;;;;;;5016697;28;20038;-50
2023/10/13 11:26:54;;;;;;;7.82;3.45;;;20.60;69.90;;;;;;5005799;28;20766;-48
2023/10/13 11:29:31;;;;;;;6.60;4.00;;;20.60;70.00;;;;;;5005763;28;20129;-47
2023/10/13 11:32:00;;;;;;;7.00;3.70;;;20.60;69.80;;;;;;5003157;28;20568;-49
2023/10/13 11:34:30;;;;;;;5.88;3.38;;;20.60;69.90;;;;;;5021205;28;20440;-46
2023/10/13 11:36:55;;;;;;;11.52;3.65;;;20.60;69.90;;;;;;5002704;28;20030;-49
2023/10/13 11:39:30;;;;;;;6.18;3.25;;;20.60;69.80;;;;;;5017827;28;20026;-52
2023/10/13 11:41:55;;;;;;;9.52;3.55;;;20.50;69.80;;;;;;5005546;28;20038;-47
2023/10/13 11:44:25;;;;;;;5.15;3.63;;;20.60;69.80;;;;;;5016378;28;20048;-49
2023/10/13 11:46:55;;;;;;;4.88;3.20;;;20.60;69.80;;;;;;5000766;28;20029;-49
2023/10/13 11:52:01;;;;;;;6.78;3.70;;;20.60;69.80;;;;;;5015239;28;20033;-52
2023/10/13 11:54:27;;;;;;;4.50;3.20;;;20.60;69.70;;;;;;5011545;28;20030;-48
2023/10/13 11:56:58;;;;;;;5.95;3.70;;;20.60;69.70;;;;;;5008772;28;20029;-50
2023/10/13 11:59:27;;;;;;;5.70;3.45;;;20.60;69.70;;;;;;5011090;28;20038;-49
2023/10/13 12:07:27;;;;;;;8.20;3.63;;;20.60;69.60;;;;;;5010928;28;20513;-47
2023/10/13 12:12:26;;;;;;;6.95;4.10;;;20.60;69.40;;;;;;5012343;28;20034;-47
2023/10/13 12:14:56;;;;;;;7.68;3.63;;;20.60;69.20;;;;;;5017540;28;20041;-50
2023/10/13 12:17:36;;;;;;;7.72;4.35;;;20.70;69.30;;;;;;5017894;28;20037;-46
2023/10/13 12:20:11;;;;;;;6.95;3.75;;;20.70;69.20;;;;;;5019861;28;20039;-48
2023/10/13 12:22:51;;;;;;;7.93;4.18;;;20.70;69.20;;;;;;5017651;28;20132;-48
2023/10/13 12:25:34;;;;;;;5.40;3.80;;;20.60;69.10;;;;;;5013125;28;20033;-47
2023/10/13 12:28:12;;;;;;;6.15;3.95;;;20.70;69.20;;;;;;5018505;28;20041;-46
2023/10/13 12:30:54;;;;;;;5.35;4.18;;;20.70;69.10;;;;;;5015108;28;20478;-47
2023/10/13 12:33:28;;;;;;;8.77;4.05;;;20.60;69.00;;;;;;5026234;28;20195;-56
2023/10/13 12:36:11;;;;;;;5.95;4.00;;;20.60;69.10;;;;;;5019514;28;20071;-47
2023/10/13 12:38:51;;;;;;;7.10;4.43;;;20.70;69.10;;;;;;5015465;28;20469;-48
2023/10/13 12:49:49;;;;;;;6.88;3.85;;;20.60;69.00;;;;;;5016409;28;20061;-48
2023/10/13 12:52:34;;;;;;;8.38;3.80;;;20.70;69.00;;;;;;5018904;28;20038;-47
2023/10/13 12:55:06;;;;;;;6.03;4.20;;;20.70;69.00;;;;;;5018184;28;20022;-46
2023/10/13 12:57:32;;;;;;;8.10;4.22;;;20.70;68.90;;;;;;5027113;28;20034;-48
2023/10/13 12:59:58;;;;;;;8.55;4.20;;;20.70;68.90;;;;;;5014338;28;20596;-49
2023/10/13 13:02:25;;;;;;;5.68;3.67;;;20.70;68.90;;;;;;5019199;28;20037;-49
2023/10/13 13:05:11;;;;;;;7.25;4.22;;;20.70;69.00;;;;;;5023147;28;20032;-49
2023/10/13 13:07:46;;;;;;;7.03;4.32;;;20.70;68.90;;;;;;5018546;28;20620;-48
2023/10/13 13:10:13;;;;;;;;;;;20.70;69.00;;;;;;5021635;28;20563;-50
2023/10/13 13:12:39;;;;;;;8.43;4.72;;;20.70;68.90;;;;;;5019253;28;19909;-47
2023/10/13 13:15:08;;;;;;;7.30;5.10;;;20.70;68.90;;;;;;5023412;28;20041;-49
2023/10/13 13:17:38;;;;;;;5.60;3.92;;;20.70;68.90;;;;;;5025265;28;20109;-46
2023/10/13 13:20:11;;;;;;;8.55;4.13;;;20.70;68.90;;;;;;5022589;28;20026;-48
2023/10/13 13:22:40;;;;;;;6.50;4.57;;;20.70;68.90;;;;;;5022875;28;20406;-46
2023/10/13 13:25:10;;;;;;;7.90;4.53;;;20.70;68.80;;;;;;5022229;28;20034;-50
2023/10/13 13:27:36;;;;;;;5.45;4.30;;;20.70;68.60;;;;;;5019112;28;20049;-50
2023/10/13 13:30:11;;;;;;;8.20;4.43;;;20.70;68.70;;;;;;5021213;28;20052;-51
2023/10/13 13:32:37;;;;;;;7.03;4.20;;;20.70;68.60;;;;;;5015088;28;20032;-47
2023/10/13 13:35:04;;;;;;;6.15;4.05;;;20.70;68.50;;;;;;5018530;28;20030;-48
2023/10/13 13:37:30;;;;;;;6.53;4.65;;;20.70;68.60;;;;;;5024614;28;20029;-48
2023/10/13 13:39:56;;;;;;;6.63;4.03;;;20.70;68.60;;;;;;5015162;28;20038;-49
2023/10/13 13:42:22;;;;;;;5.57;3.85;;;20.70;68.60;;;;;;5019585;28;20037;-46
2023/10/13 13:44:48;;;;;;;7.15;3.70;;;20.70;68.40;;;;;;5023898;28;20044;-46
2023/10/13 13:47:14;;;;;;;5.70;3.83;;;20.70;68.30;;;;;;5019272;28;20034;-50
2023/10/13 13:49:40;;;;;;;5.30;4.10;;;20.70;68.20;;;;;;5021322;28;20148;-46
2023/10/13 13:52:07;;;;;;;5.53;4.00;;;20.70;68.00;;;;;;5018458;28;20388;-49
2023/10/13 13:54:32;;;;;;;5.13;3.78;;;20.70;67.90;;;;;;5019212;28;20036;-48
2023/10/13 13:56:58;;;;;;;8.68;4.55;;;20.70;67.80;;;;;;5018971;28;20910;-48
2023/10/13 13:59:24;;;;;;;6.97;4.00;;;20.70;67.80;;;;;;5020938;28;20395;-47
2023/10/13 14:01:52;;;;;;;5.57;3.95;;;20.70;68.20;;;;;;5025348;28;20463;-48
2023/10/13 14:04:18;;;;;;;8.80;4.32;;;20.70;68.30;;;;;;5022123;28;20033;-48
2023/10/13 14:06:47;;;;;;;5.78;3.90;;;20.70;68.30;;;;;;5023955;28;20056;-48
2023/10/13 14:16:51;;;;;;;7.40;3.72;;;20.70;68.00;;;;;;5020164;28;20040;-48
2023/10/13 14:19:26;;;;;;;6.25;4.43;;;20.70;68.10;;;;;;5016468;28;20096;-48
2023/10/13 14:21:55;;;;;;;4.80;4.22;;;20.70;68.20;;;;;;5021739;28;20053;-47
2023/10/13 14:24:28;;;;;;;7.95;4.13;;;20.70;68.30;;;;;;5022028;28;20494;-53
2023/10/13 14:27:07;;;;;;;6.30;3.47;;;20.70;68.00;;;;;;5017870;28;20033;-48
2023/10/13 14:29:33;;;;;;;5.78;4.32;;;20.70;68.30;;;;;;5014192;28;20033;-47
2023/10/13 14:31:59;;;;;;;5.78;3.63;;;20.70;68.20;;;;;;5012366;28;20092;-48
2023/10/13 14:34:26;;;;;;;4.97;4.00;;;20.70;68.40;;;;;;5018651;28;20030;-47
2023/10/13 14:36:54;;;;;;;4.78;4.10;;;20.70;68.10;;;;;;5014782;28;20206;-55
2023/10/13 14:39:20;;;;;;;5.15;3.50;;;20.70;68.10;;;;;;5014933;28;20411;-48
2023/10/13 14:41:47;;;;;;;5.18;3.88;;;20.70;68.00;;;;;;5016132;28;20034;-48
2023/10/13 14:44:16;;;;;;;5.72;4.50;;;20.70;68.00;;;;;;5013295;28;20076;-48
2023/10/13 14:46:42;;;;;;;5.65;4.60;;;20.70;67.90;;;;;;5016238;28;20053;-46
2023/10/13 14:49:08;;;;;;;5.50;3.90;;;20.70;68.00;;;;;;5008745;28;20034;-48
2023/10/13 14:51:33;;;;;;;6.60;3.95;;;20.70;68.00;;;;;;5006633;28;20037;-47
2023/10/13 14:53:59;;;;;;;4.95;3.83;;;20.70;68.00;;;;;;5004089;28;20030;-48
2023/10/13 14:56:26;;;;;;;5.15;4.05;;;20.70;68.10;;;;;;5009606;28;20044;-46
2023/10/13 14:58:53;;;;;;;5.65;4.10;;;20.70;68.20;;;;;;5016237;28;20116;-50
2023/10/13 15:01:26;;;;;;;5.43;3.95;;;20.70;68.20;;;;;;5013568;28;20026;-50
2023/10/13 15:03:55;;;;;;;3.97;3.03;;;20.70;67.90;;;;;;5005857;28;20549;-49
2023/10/13 15:06:26;;;;;;;5.65;3.50;;;20.70;68.10;;;;;;5016125;28;20033;-49
2023/10/13 15:08:54;;;;;;;7.03;3.65;;;20.70;68.00;;;;;;5009026;28;20084;-55
2023/10/13 15:11:26;;;;;;;5.97;3.78;;;20.70;68.20;;;;;;5013553;28;20030;-48
2023/10/13 15:13:53;;;;;;;5.85;3.75;;;20.70;68.00;;;;;;5010155;28;20025;-46
2023/10/13 15:16:26;;;;;;;5.53;3.95;;;20.70;68.10;;;;;;5021551;28;20049;-47
2023/10/13 15:18:52;;;;;;;7.47;3.97;;;20.70;68.00;;;;;;5023367;28;20033;-49
2023/10/13 15:21:34;;;;;;;8.10;4.35;;;20.70;68.00;;;;;;5022651;28;20037;-49
2023/10/13 15:24:03;;;;;;;8.70;4.35;;;20.70;67.90;;;;;;5017175;28;20080;-46
2023/10/13 15:26:37;;;;;;;5.97;4.03;;;20.70;68.10;;;;;;5020922;28;20037;-48
2023/10/13 15:29:08;;;;;;;5.28;3.25;;;20.70;68.10;;;;;;5016399;28;20054;-46
2023/10/13 15:34:06;;;;;;;5.65;3.78;;;20.70;68.20;;;;;;5014626;28;20040;-46
2023/10/13 15:36:33;;;;;;;4.43;3.50;;;20.70;68.00;;;;;;5003409;28;20140;-47
2023/10/13 15:38:58;;;;;;;4.53;3.75;;;20.70;68.20;;;;;;5008896;28;20346;-48
2023/10/13 15:41:28;;;;;;;5.65;3.53;;;20.70;68.30;;;;;;5007342;28;20103;-49
2023/10/13 15:43:55;;;;;;;4.80;3.33;;;20.70;68.30;;;;;;5019863;28;20052;-49
2023/10/13 15:46:22;;;;;;;4.38;3.33;;;20.70;68.30;;;;;;5015076;28;20053;-46
2023/10/13 15:48:51;;;;;;;6.03;3.65;;;20.70;68.30;;;;;;5024548;28;20022;-46
2023/10/13 15:51:18;;;;;;;3.85;3.47;;;20.70;68.20;;;;;;5021982;28;20041;-50
2023/10/13 15:53:47;;;;;;;6.40;3.28;;;20.70;68.20;;;;;;5020374;28;20029;-49
2023/10/13 15:56:14;;;;;;;5.00;3.63;;;20.70;68.30;;;;;;5023096;28;20494;-46
2023/10/13 15:58:45;;;;;;;5.28;3.85;;;20.60;68.00;;;;;;5022296;28;20027;-47
2023/10/13 16:01:15;;;;;;;5.30;3.67;;;20.70;67.80;;;;;;5021635;28;20021;-48
2023/10/13 16:03:44;;;;;;;5.07;3.45;;;20.70;68.00;;;;;;5026699;28;20034;-47
2023/10/13 16:06:10;;;;;;;5.78;3.70;;;20.70;68.10;;;;;;5018077;28;20391;-49
2023/10/13 16:08:37;;;;;;;3.50;3.20;;;20.70;68.20;;;;;;5025805;28;20029;-47
2023/10/13 16:11:07;;;;;;;5.15;3.40;;;20.60;68.10;;;;;;5027025;28;20033;-49
2023/10/13 16:13:36;;;;;;;4.63;3.33;;;20.70;67.90;;;;;;5026500;28;20072;-46
2023/10/13 16:16:03;;;;;;;4.00;3.17;;;20.60;68.30;;;;;;5018677;28;20088;-46
2023/10/13 16:18:32;;;;;;;4.72;3.92;;;20.70;68.30;;;;;;5015673;28;20084;-49
2023/10/13 16:21:03;;;;;;;4.22;3.20;;;20.60;67.90;;;;;;5022051;28;20029;-47
2023/10/13 16:23:29;;;;;;;6.25;3.85;;;20.60;68.30;;;;;;5026362;28;20041;-50
2023/10/13 16:26:01;;;;;;;3.78;3.10;;;20.60;67.90;;;;;;5021622;28;20037;-49
2023/10/13 16:28:27;;;;;;;4.97;3.63;;;20.60;68.30;;;;;;5024300;28;20106;-48
2023/10/13 16:30:55;;;;;;;6.15;4.20;;;20.60;67.90;;;;;;5025951;28;20109;-48
2023/10/13 16:33:21;;;;;;;6.75;3.17;;;20.60;68.10;;;;;;5022136;28;20048;-48